createdAt,value
2022-11-17T00:01:19.544Z,98559.89
2022-11-17T00:03:47.500Z,98553.20
2022-11-17T00:06:14.284Z,98562.11
2022-11-17T00:08:40.991Z,98560.10
2022-11-17T00:11:07.766Z,98560.67
2022-11-17T00:13:53.132Z,98557.67
2022-11-17T00:16:20.445Z,98561.57
2022-11-17T00:19:05.933Z,98570.33
2022-11-17T00:21:32.833Z,98565.56
2022-11-17T00:23:59.513Z,98564.61
2022-11-17T00:26:27.886Z,98558.27
2022-11-17T00:28:59.239Z,98560.85
2022-11-17T00:32:02.904Z,98561.85
2022-11-17T00:34:29.687Z,98565.41
2022-11-17T00:36:56.374Z,98565.15
2022-11-17T00:39:23.804Z,98557.66
2022-11-17T00:41:50.746Z,98553.75
2022-11-17T00:44:17.633Z,98547.75
2022-11-17T00:46:44.345Z,98551.49
2022-11-17T00:49:11.347Z,98552.07
2022-11-17T00:51:38.184Z,98552.52
2022-11-17T00:54:04.985Z,98551.87
2022-11-17T00:56:31.727Z,98549.69
2022-11-17T00:58:58.608Z,98547.46
2022-11-17T01:01:25.458Z,98544.01
2022-11-17T01:04:02.931Z,98545.02
2022-11-17T01:06:40.705Z,98546.73
2022-11-17T01:09:21.831Z,98542.98
2022-11-17T01:11:49.547Z,98544.02
2022-11-17T01:14:18.499Z,98543.89
2022-11-17T01:16:45.319Z,98545.36
2022-11-17T01:19:12.319Z,98545.95
2022-11-17T01:21:39.070Z,98547.64
2022-11-17T01:24:06.055Z,98552.42
2022-11-17T01:26:34.593Z,98551.52
2022-11-17T01:31:44.020Z,98555.02
2022-11-17T01:34:10.998Z,98556.77
2022-11-17T01:36:58.762Z,98560.19
2022-11-17T01:39:26.270Z,98559.46
2022-11-17T01:41:53.442Z,98554.86
2022-11-17T01:44:41.771Z,98556.52
2022-11-17T01:47:14.110Z,98562.88
2022-11-17T01:49:40.867Z,98560.41
2022-11-17T01:52:07.940Z,98562.50
2022-11-17T01:54:35.638Z,98561.02
2022-11-17T01:57:05.119Z,98556.25
2022-11-17T01:59:37.615Z,98555.71
2022-11-17T02:02:04.541Z,98556.89
2022-11-17T02:04:40.658Z,98559.16
2022-11-17T02:07:20.267Z,98560.11
2022-11-17T02:09:47.038Z,98554.50
2022-11-17T02:12:13.831Z,98554.98
2022-11-17T02:14:40.622Z,98557.48
2022-11-17T02:17:13.752Z,98560.41
2022-11-17T02:19:42.038Z,98562.15
2022-11-17T02:22:40.013Z,98558.45
2022-11-17T02:25:28.733Z,98554.08
2022-11-17T02:28:34.390Z,98554.33
2022-11-17T02:31:25.601Z,98556.84
2022-11-17T02:34:13.661Z,98557.27
2022-11-17T02:36:57.076Z,98564.03
2022-11-17T02:39:44.439Z,98559.95
2022-11-17T02:42:16.620Z,98558.77
2022-11-17T02:44:48.097Z,98556.42
2022-11-17T02:47:23.951Z,98555.67
2022-11-17T02:49:53.860Z,98558.38
2022-11-17T02:52:20.614Z,98561.82
2022-11-17T02:54:47.375Z,98558.85
2022-11-17T02:57:30.253Z,98555.31
2022-11-17T03:00:01.858Z,98560.94
2022-11-17T03:03:00.450Z,98562.64
2022-11-17T03:05:36.740Z,98562.97
2022-11-17T03:08:41.013Z,98564.62
2022-11-17T03:11:07.936Z,98566.92
2022-11-17T03:14:05.424Z,98566.14
2022-11-17T03:16:37.300Z,98569.56
2022-11-17T03:19:27.446Z,98566.23
2022-11-17T03:22:03.849Z,98565.08
2022-11-17T03:24:33.651Z,98570.02
2022-11-17T03:27:21.991Z,98570.77
2022-11-17T03:29:50.682Z,98572.58
2022-11-17T03:32:17.387Z,98573.52
2022-11-17T03:35:01.545Z,98564.83
2022-11-17T03:37:29.215Z,98563.27
2022-11-17T03:39:59.824Z,98558.98
2022-11-17T03:42:29.104Z,98554.75
2022-11-17T03:45:02.327Z,98552.16
2022-11-17T03:47:29.092Z,98555.00
2022-11-17T03:50:14.275Z,98558.12
2022-11-17T03:52:41.096Z,98558.38
2022-11-17T03:55:08.015Z,98554.95
2022-11-17T03:57:36.829Z,98548.74
2022-11-17T04:00:08.275Z,98544.59
2022-11-17T04:02:42.075Z,98542.13
2022-11-17T04:05:09.644Z,98547.43
2022-11-17T04:07:40.477Z,98544.07
2022-11-17T04:10:09.278Z,98541.70
2022-11-17T04:12:54.589Z,98537.29
2022-11-17T04:15:39.925Z,98542.12
2022-11-17T04:18:06.654Z,98538.38
2022-11-17T04:20:36.231Z,98530.02
2022-11-17T04:23:07.290Z,98534.39
2022-11-17T04:25:53.716Z,98538.62
2022-11-17T04:28:38.867Z,98536.69
2022-11-17T04:31:13.120Z,98538.87
2022-11-17T04:33:41.971Z,98545.41
2022-11-17T04:36:09.625Z,98547.18
2022-11-17T04:38:36.501Z,98547.30
2022-11-17T04:41:23.112Z,98545.41
2022-11-17T04:43:50.289Z,98539.20
2022-11-17T04:46:17.522Z,98540.55
2022-11-17T04:48:44.518Z,98540.77
2022-11-17T04:51:11.620Z,98535.09
2022-11-17T04:53:38.422Z,98535.82
2022-11-17T04:56:05.242Z,98540.10
2022-11-17T04:58:31.970Z,98550.38
2022-11-17T05:01:12.479Z,98547.75
2022-11-17T05:03:39.215Z,98547.88
2022-11-17T05:06:05.963Z,98546.80
2022-11-17T05:08:32.711Z,98549.02
2022-11-17T05:11:18.368Z,98555.02
2022-11-17T05:13:45.156Z,98559.27
2022-11-17T05:16:30.514Z,98566.77
2022-11-17T05:18:57.258Z,98569.19
2022-11-17T05:21:24.065Z,98571.58
2022-11-17T05:23:56.460Z,98572.18
2022-11-17T05:26:27.990Z,98575.92
2022-11-17T05:28:55.421Z,98583.42
2022-11-17T05:31:22.562Z,98591.27
2022-11-17T05:33:49.349Z,98593.61
2022-11-17T05:36:16.103Z,98596.27
2022-11-17T05:38:42.939Z,98591.75
2022-11-17T05:41:09.667Z,98599.52
2022-11-17T05:43:36.748Z,98603.64
2022-11-17T05:46:03.840Z,98612.23
2022-11-17T05:48:30.656Z,98620.84
2022-11-17T05:50:57.525Z,98627.54
2022-11-17T05:53:24.325Z,98620.59
2022-11-17T05:55:51.233Z,98625.98
2022-11-17T05:58:19.632Z,98620.30
2022-11-17T06:00:46.397Z,98611.33
2022-11-17T06:03:16.849Z,98609.81
2022-11-17T06:05:43.720Z,98600.72
2022-11-17T06:08:10.621Z,98591.71
2022-11-17T06:10:37.486Z,98582.08
2022-11-17T06:13:04.179Z,98572.08
2022-11-17T06:15:30.977Z,98567.13
2022-11-17T06:18:02.010Z,98562.36
2022-11-17T06:20:34.462Z,98562.07
2022-11-17T06:23:02.762Z,98558.52
2022-11-17T06:25:29.599Z,98561.45
2022-11-17T06:27:56.237Z,98565.34
2022-11-17T06:30:23.013Z,98567.59
2022-11-17T06:32:50.101Z,98572.48
2022-11-17T06:35:16.957Z,98577.25
2022-11-17T06:37:43.806Z,98584.81
2022-11-17T06:40:11.686Z,98578.81
2022-11-17T06:43:00.520Z,98575.40
2022-11-17T06:45:27.400Z,98574.08
2022-11-17T06:47:54.078Z,98575.81
2022-11-17T06:50:20.926Z,98572.15
2022-11-17T06:52:47.608Z,98568.11
2022-11-17T06:55:14.425Z,98574.03
2022-11-17T06:57:41.156Z,98572.06
2022-11-17T07:00:08.607Z,98562.11
2022-11-17T07:02:36.704Z,98558.30
2022-11-17T07:05:04.280Z,98563.39
2022-11-17T07:07:31.060Z,98559.41
2022-11-17T07:09:57.738Z,98566.15
2022-11-17T07:12:24.467Z,98564.71
2022-11-17T07:14:51.312Z,98564.14
2022-11-17T07:17:17.940Z,98563.81
2022-11-17T07:19:44.705Z,98561.39
2022-11-17T07:22:11.347Z,98567.69
2022-11-17T07:24:38.087Z,98565.17
2022-11-17T07:27:06.486Z,98566.60
2022-11-17T07:29:33.304Z,98570.67
2022-11-17T07:31:59.933Z,98569.08
2022-11-17T07:34:26.653Z,98566.31
2022-11-17T07:36:53.392Z,98565.45
2022-11-17T07:39:21.908Z,98573.14
2022-11-17T07:41:48.835Z,98569.27
2022-11-17T07:44:15.543Z,98569.48
2022-11-17T07:46:42.296Z,98569.89
2022-11-17T07:49:08.998Z,98573.09
2022-11-17T07:51:35.701Z,98570.45
2022-11-17T07:54:02.324Z,98586.90
2022-11-17T07:56:29.104Z,98587.89
2022-11-17T07:58:55.769Z,98590.57
2022-11-17T08:01:22.546Z,98596.13
2022-11-17T08:03:49.297Z,98598.50
2022-11-17T08:06:16.920Z,98595.36
2022-11-17T08:08:43.684Z,98592.41
2022-11-17T08:11:11.627Z,98594.79
2022-11-17T08:13:39.600Z,98590.77
2022-11-17T08:16:07.021Z,98586.42
2022-11-17T08:18:34.087Z,98576.92
2022-11-17T08:21:06.122Z,98578.42
2022-11-17T08:23:33.000Z,98575.92
2022-11-17T08:25:59.946Z,98572.38
2022-11-17T08:28:26.708Z,98571.19
2022-11-17T08:30:53.893Z,98570.45
2022-11-17T08:33:20.641Z,98574.94
2022-11-17T08:35:47.415Z,98571.77
2022-11-17T08:38:15.470Z,98568.85
2022-11-17T08:40:42.268Z,98566.88
2022-11-17T08:43:08.965Z,98566.16
2022-11-17T08:45:35.686Z,98562.77
2022-11-17T08:48:02.350Z,98552.24
2022-11-17T08:50:29.071Z,98556.75
2022-11-17T08:52:55.866Z,98550.74
2022-11-17T08:55:22.581Z,98545.73
2022-11-17T08:57:49.390Z,98539.83
2022-11-17T09:00:16.536Z,98541.72
2022-11-17T09:02:43.254Z,98541.11
2022-11-17T09:05:10.095Z,98539.66
2022-11-17T09:07:36.831Z,98538.18
2022-11-17T09:10:04.366Z,98544.55
2022-11-17T09:12:31.207Z,98545.95
2022-11-17T09:14:57.865Z,98548.43
2022-11-17T09:17:24.583Z,98531.98
2022-11-17T09:19:51.313Z,98544.33
2022-11-17T09:22:18.083Z,98535.87
2022-11-17T09:24:44.819Z,98532.99
2022-11-17T09:27:11.595Z,98532.50
2022-11-17T09:29:38.345Z,98534.80
2022-11-17T09:32:05.221Z,98529.05
2022-11-17T09:34:31.868Z,98524.36
2022-11-17T09:36:58.600Z,98520.95
2022-11-17T09:39:25.349Z,98522.18
2022-11-17T09:41:53.039Z,98518.02
2022-11-17T09:44:28.826Z,98505.08
2022-11-17T09:47:19.269Z,98512.88
2022-11-17T09:50:12.860Z,98512.92
2022-11-17T09:52:54.966Z,98517.48
2022-11-17T09:55:28.423Z,98510.38
2022-11-17T09:58:08.840Z,98524.68
2022-11-17T10:00:35.627Z,98525.55
2022-11-17T10:03:02.374Z,98519.71
2022-11-17T10:05:30.694Z,98516.66
2022-11-17T10:08:00.587Z,98513.42
2022-11-17T10:10:39.775Z,98498.57
2022-11-17T10:13:09.823Z,98497.21
2022-11-17T10:15:47.461Z,98496.48
2022-11-17T10:18:14.918Z,98495.82
2022-11-17T10:20:42.415Z,98491.66
2022-11-17T10:23:17.847Z,98489.23
2022-11-17T10:25:46.270Z,98487.30
2022-11-17T10:28:27.460Z,98487.23
2022-11-17T10:31:02.048Z,98489.13
2022-11-17T10:33:48.911Z,98489.12
2022-11-17T10:36:30.921Z,98483.61
2022-11-17T10:38:59.186Z,98486.29
2022-11-17T10:41:29.115Z,98485.63
2022-11-17T10:44:02.510Z,98489.32
2022-11-17T10:46:38.222Z,98493.50
2022-11-17T10:49:23.804Z,98489.59
2022-11-17T10:52:03.966Z,98484.54
2022-11-17T10:54:30.746Z,98481.09
2022-11-17T10:56:58.396Z,98480.38
2022-11-17T10:59:30.164Z,98478.54
2022-11-17T11:01:57.033Z,98478.37
2022-11-17T11:04:36.780Z,98480.80
2022-11-17T11:07:13.315Z,98482.89
2022-11-17T11:09:50.592Z,98483.88
2022-11-17T11:12:21.704Z,98477.76
2022-11-17T11:14:51.252Z,98481.41
2022-11-17T11:17:18.077Z,98478.49
2022-11-17T11:19:47.164Z,98475.16
2022-11-17T11:22:33.034Z,98477.25
2022-11-17T11:25:25.376Z,98477.70
2022-11-17T11:28:01.637Z,98479.54
2022-11-17T11:30:28.416Z,98483.77
2022-11-17T11:33:14.088Z,98482.46
2022-11-17T11:36:11.312Z,98486.98
2022-11-17T11:38:47.779Z,98482.42
2022-11-17T11:41:35.834Z,98476.61
2022-11-17T11:44:02.822Z,98477.11
2022-11-17T11:46:48.367Z,98481.95
2022-11-17T11:49:40.487Z,98484.59
2022-11-17T11:52:11.980Z,98478.89
2022-11-17T11:54:51.432Z,98471.36
2022-11-17T11:57:18.785Z,98476.46
2022-11-17T12:00:20.900Z,98467.79
2022-11-17T12:02:52.919Z,98464.75
2022-11-17T12:05:19.683Z,98459.27
2022-11-17T12:08:04.661Z,98456.16
2022-11-17T12:10:37.899Z,98449.99
2022-11-17T12:13:04.668Z,98452.13
2022-11-17T12:15:33.229Z,98445.46
2022-11-17T12:18:26.341Z,98444.36
2022-11-17T12:21:03.723Z,98440.54
2022-11-17T12:23:38.368Z,98441.52
2022-11-17T12:26:05.099Z,98440.82
2022-11-17T12:28:39.160Z,98447.02
2022-11-17T12:31:10.107Z,98453.64
2022-11-17T12:34:06.599Z,98454.05
2022-11-17T12:36:34.140Z,98456.16
2022-11-17T12:39:06.972Z,98454.80
2022-11-17T12:41:49.232Z,98453.11
2022-11-17T12:44:37.935Z,98448.92
2022-11-17T12:47:26.135Z,98439.59
2022-11-17T12:50:17.411Z,98436.05
2022-11-17T12:53:06.109Z,98437.92
2022-11-17T12:55:32.839Z,98442.55
2022-11-17T12:58:19.868Z,98443.77
2022-11-17T13:01:05.637Z,98437.23
2022-11-17T13:03:54.648Z,98430.42
2022-11-17T13:06:35.402Z,98423.80
2022-11-17T13:09:08.024Z,98422.20
2022-11-17T13:11:35.288Z,98418.55
2022-11-17T13:14:11.859Z,98414.23
2022-11-17T13:17:10.104Z,98412.88
2022-11-17T13:19:41.276Z,98419.33
2022-11-17T13:22:11.075Z,98414.27
2022-11-17T13:24:39.230Z,98416.48
2022-11-17T13:27:07.513Z,98412.83
2022-11-17T13:29:34.381Z,98396.58
2022-11-17T13:32:17.260Z,98403.34
2022-11-17T13:34:52.432Z,98395.94
2022-11-17T13:37:29.007Z,98390.73
2022-11-17T13:40:03.405Z,98392.61
2022-11-17T13:42:31.574Z,98386.15
2022-11-17T13:45:00.372Z,98388.63
2022-11-17T13:48:50.152Z,98390.25
2022-11-17T13:51:28.845Z,98395.20
2022-11-17T13:54:14.151Z,98386.89
2022-11-17T13:56:51.382Z,98388.36
2022-11-17T13:59:18.201Z,98386.95
2022-11-17T14:01:44.954Z,98389.23
2022-11-17T14:04:22.911Z,98397.10
2022-11-17T14:06:56.490Z,98406.76
2022-11-17T14:09:23.951Z,98419.58
2022-11-17T14:11:50.758Z,98414.23
2022-11-17T14:14:19.426Z,98407.78
2022-11-17T14:16:46.210Z,98411.40
2022-11-17T14:19:15.947Z,98406.42
2022-11-17T14:22:24.766Z,98401.91
2022-11-17T14:24:56.283Z,98405.86
2022-11-17T14:27:29.651Z,98411.35
2022-11-17T14:29:56.376Z,98413.72
2022-11-17T14:32:23.111Z,98413.04
2022-11-17T14:34:49.844Z,98404.51
2022-11-17T14:37:16.851Z,98397.44
2022-11-17T14:39:43.596Z,98391.73
2022-11-17T14:42:11.204Z,98394.19
2022-11-17T14:44:37.966Z,98392.89
2022-11-17T14:47:04.648Z,98405.08
2022-11-17T14:49:31.423Z,98401.45
2022-11-17T14:51:59.321Z,98406.60
2022-11-17T14:54:26.227Z,98412.44
2022-11-17T14:56:52.836Z,98411.65
2022-11-17T14:59:19.597Z,98417.36
2022-11-17T15:01:46.443Z,98417.23
2022-11-17T15:04:43.007Z,98411.20
2022-11-17T15:07:00.564Z,98410.29
2022-11-17T15:09:27.355Z,98420.03
2022-11-17T15:11:54.354Z,98425.29
2022-11-17T15:14:21.143Z,98425.73
2022-11-17T15:16:47.892Z,98417.11
2022-11-17T15:19:14.715Z,98421.92
2022-11-17T15:21:41.538Z,98419.41
2022-11-17T15:24:09.271Z,98417.02
2022-11-17T15:26:36.180Z,98414.23
2022-11-17T15:29:02.813Z,98409.39
2022-11-17T15:31:29.799Z,98411.70
2022-11-17T15:33:56.606Z,98397.77
2022-11-17T15:36:23.298Z,98415.27
2022-11-17T15:38:50.138Z,98403.80
2022-11-17T15:41:16.949Z,98417.23
2022-11-17T15:43:44.211Z,98417.39
2022-11-17T15:46:12.689Z,98420.84
2022-11-17T15:48:42.293Z,98417.92
2022-11-17T15:51:16.291Z,98423.77
2022-11-17T15:53:44.061Z,98429.10
2022-11-17T15:56:20.063Z,98427.72
2022-11-17T15:58:47.677Z,98425.52
2022-11-17T16:01:15.397Z,98425.16
2022-11-17T16:03:43.710Z,98424.00
2022-11-17T16:06:10.945Z,98425.80
2022-11-17T16:08:38.041Z,98420.67
2022-11-17T16:11:05.053Z,98419.32
2022-11-17T16:13:31.909Z,98419.46
2022-11-17T16:15:58.735Z,98426.95
2022-11-17T16:18:25.629Z,98428.17
2022-11-17T16:20:52.470Z,98423.73
2022-11-17T16:23:19.281Z,98420.82
2022-11-17T16:25:47.770Z,98425.73
2022-11-17T16:28:14.758Z,98424.88
2022-11-17T16:30:41.621Z,98426.77
2022-11-17T16:33:12.228Z,98423.40
2022-11-17T16:35:40.457Z,98420.28
2022-11-17T16:38:08.137Z,98418.60
2022-11-17T16:40:37.494Z,98411.38
2022-11-17T16:43:04.301Z,98412.69
2022-11-17T16:45:31.073Z,98414.58
2022-11-17T16:47:59.006Z,98403.15
2022-11-17T16:50:25.928Z,98396.95
2022-11-17T16:52:52.690Z,98387.22
2022-11-17T16:55:19.465Z,98396.20
2022-11-17T16:57:46.218Z,98397.19
2022-11-17T17:00:15.037Z,98392.48
2022-11-17T17:02:41.896Z,98390.07
2022-11-17T17:05:10.131Z,98392.29
2022-11-17T17:07:36.937Z,98385.52
2022-11-17T17:10:03.668Z,98384.33
2022-11-17T17:12:30.537Z,98381.98
2022-11-17T17:14:57.146Z,98383.20
2022-11-17T17:17:23.918Z,98383.12
2022-11-17T17:19:50.637Z,98388.54
2022-11-17T17:22:17.368Z,98387.22
2022-11-17T17:24:44.106Z,98384.48
2022-11-17T17:27:10.905Z,98392.90
2022-11-17T17:29:37.674Z,98399.92
2022-11-17T17:32:04.524Z,98391.70
2022-11-17T17:34:31.386Z,98396.33
2022-11-17T17:36:58.006Z,98398.01
2022-11-17T17:39:24.770Z,98391.73
2022-11-17T17:41:51.451Z,98392.54
2022-11-17T17:44:18.744Z,98388.02
2022-11-17T17:46:46.143Z,98388.51
2022-11-17T17:49:12.973Z,98385.14
2022-11-17T17:51:41.646Z,98379.30
2022-11-17T17:54:10.261Z,98383.09
2022-11-17T17:56:37.032Z,98378.65
2022-11-17T17:59:03.772Z,98387.90
2022-11-17T18:01:33.253Z,98390.81
2022-11-17T18:04:09.086Z,98388.43
2022-11-17T18:06:40.768Z,98387.41
2022-11-17T18:09:08.556Z,98375.58
2022-11-17T18:11:35.756Z,98375.48
2022-11-17T18:14:02.723Z,98386.98
2022-11-17T18:16:30.139Z,98381.10
2022-11-17T18:18:58.345Z,98374.66
2022-11-17T18:21:25.336Z,98371.66
2022-11-17T18:23:53.480Z,98371.09
2022-11-17T18:26:21.905Z,98374.34
2022-11-17T18:28:58.922Z,98377.34
2022-11-17T18:31:27.284Z,98384.07
2022-11-17T18:33:55.852Z,98380.75
2022-11-17T18:36:22.808Z,98385.02
2022-11-17T18:38:52.068Z,98372.61
2022-11-17T18:41:19.757Z,98375.95
2022-11-17T18:43:46.673Z,98377.59
2022-11-17T18:46:18.569Z,98376.19
2022-11-17T18:48:46.334Z,98380.96
2022-11-17T18:51:21.876Z,98378.65
2022-11-17T18:53:49.381Z,98381.27
2022-11-17T18:56:16.976Z,98377.48
2022-11-17T18:58:43.879Z,98373.69
2022-11-17T19:01:15.208Z,98374.75
2022-11-17T19:03:43.327Z,98378.66
2022-11-17T19:06:10.324Z,98377.58
2022-11-17T19:08:37.190Z,98373.77
2022-11-17T19:11:06.312Z,98369.41
2022-11-17T19:13:34.396Z,98368.83
2022-11-17T19:16:15.057Z,98367.39
2022-11-17T19:18:42.149Z,98364.52
2022-11-17T19:21:10.654Z,98359.15
2022-11-17T19:23:39.069Z,98365.27
2022-11-17T19:26:06.893Z,98366.34
2022-11-17T19:28:33.837Z,98366.25
2022-11-17T19:31:01.705Z,98362.51
2022-11-17T19:33:32.327Z,98364.23
2022-11-17T19:36:06.281Z,98365.13
2022-11-17T19:38:33.924Z,98361.52
2022-11-17T19:41:10.083Z,98357.53
2022-11-17T19:43:43.452Z,98349.24
2022-11-17T19:46:13.445Z,98353.98
2022-11-17T19:48:40.637Z,98353.47
2022-11-17T19:51:13.673Z,98358.11
2022-11-17T19:53:40.765Z,98357.95
2022-11-17T19:56:08.289Z,98357.49
2022-11-17T19:58:35.068Z,98355.95
2022-11-17T20:01:12.024Z,98351.80
2022-11-17T20:03:38.987Z,98349.55
2022-11-17T20:06:05.995Z,98344.83
2022-11-17T20:08:32.745Z,98341.24
2022-11-17T20:11:10.379Z,98340.13
2022-11-17T20:13:37.300Z,98343.05
2022-11-17T20:16:11.484Z,98338.39
2022-11-17T20:18:39.160Z,98339.90
2022-11-17T20:21:06.423Z,98332.33
2022-11-17T20:23:36.822Z,98332.55
2022-11-17T20:26:05.272Z,98332.02
2022-11-17T20:28:33.907Z,98328.77
2022-11-17T20:31:09.894Z,98333.60
2022-11-17T20:33:38.005Z,98324.70
2022-11-17T20:36:05.630Z,98327.70
2022-11-17T20:38:32.404Z,98325.89
2022-11-17T20:40:59.451Z,98318.09
2022-11-17T20:43:26.831Z,98311.98
2022-11-17T20:45:54.056Z,98312.92
2022-11-17T20:48:21.243Z,98315.20
2022-11-17T20:51:10.884Z,98313.92
2022-11-17T20:53:37.739Z,98316.06
2022-11-17T20:56:05.157Z,98306.63
2022-11-17T20:58:32.118Z,98307.57
2022-11-17T21:00:59.025Z,98315.12
2022-11-17T21:03:25.992Z,98317.87
2022-11-17T21:05:59.749Z,98320.78
2022-11-17T21:08:27.384Z,98319.45
2022-11-17T21:10:57.972Z,98324.83
2022-11-17T21:13:25.118Z,98329.66
2022-11-17T21:16:09.612Z,98331.59
2022-11-17T21:18:36.983Z,98330.36
2022-11-17T21:21:08.673Z,98331.89
2022-11-17T21:23:36.609Z,98332.02
2022-11-17T21:26:05.234Z,98335.16
2022-11-17T21:28:32.170Z,98335.54
2022-11-17T21:31:03.989Z,98335.00
2022-11-17T21:33:31.048Z,98333.16
2022-11-17T21:36:01.970Z,98333.79
2022-11-17T21:38:29.540Z,98342.90
2022-11-17T21:41:01.635Z,98348.96
2022-11-17T21:43:28.712Z,98347.73
2022-11-17T21:45:55.489Z,98347.07
2022-11-17T21:48:22.137Z,98353.11
2022-11-17T21:50:48.906Z,98345.25
2022-11-17T21:53:15.534Z,98349.73
2022-11-17T21:55:42.441Z,98349.98
2022-11-17T21:58:09.064Z,98356.83
2022-11-17T22:00:35.789Z,98362.04
2022-11-17T22:03:02.571Z,98365.23
2022-11-17T22:05:29.397Z,98363.13
2022-11-17T22:07:56.060Z,98359.31
2022-11-17T22:10:22.808Z,98358.85
2022-11-17T22:12:49.515Z,98363.66
2022-11-17T22:15:16.237Z,98365.96
2022-11-17T22:17:42.990Z,98360.05
2022-11-17T22:20:10.154Z,98356.55
2022-11-17T22:22:36.981Z,98357.34
2022-11-17T22:25:29.733Z,98361.39
2022-11-17T22:27:50.564Z,98359.34
2022-11-17T22:30:17.360Z,98357.93
2022-11-17T22:32:45.392Z,98359.36
2022-11-17T22:35:12.326Z,98358.78
2022-11-17T22:37:38.967Z,98360.72
2022-11-17T22:40:06.225Z,98359.79
2022-11-17T22:42:32.953Z,98365.59
2022-11-17T22:44:59.683Z,98360.13
2022-11-17T22:47:26.473Z,98364.05
2022-11-17T22:49:53.129Z,98368.19
2022-11-17T22:52:19.857Z,98370.31
2022-11-17T22:54:46.583Z,98372.20
2022-11-17T22:57:13.266Z,98368.70
2022-11-17T22:59:40.066Z,98372.23
2022-11-17T23:02:06.667Z,98371.06
2022-11-17T23:04:33.443Z,98379.09
2022-11-17T23:07:00.232Z,98376.15
2022-11-17T23:09:27.012Z,98369.35
2022-11-17T23:11:53.766Z,98371.03
2022-11-17T23:14:20.473Z,98373.65
2022-11-17T23:16:47.194Z,98378.60
2022-11-17T23:19:14.045Z,98380.77
2022-11-17T23:21:41.033Z,98375.15
2022-11-17T23:24:09.907Z,98380.20
2022-11-17T23:26:36.726Z,98384.90
2022-11-17T23:29:03.430Z,98383.33
2022-11-17T23:31:30.208Z,98385.95
2022-11-17T23:33:56.803Z,98388.39
2022-11-17T23:36:23.567Z,98396.00
2022-11-17T23:38:50.628Z,98395.08
2022-11-17T23:41:19.227Z,98401.30
2022-11-17T23:43:46.277Z,98401.36
2022-11-17T23:46:15.079Z,98402.15
2022-11-17T23:48:42.202Z,98399.98
2022-11-17T23:51:13.660Z,98396.69
2022-11-17T23:53:40.605Z,98396.92
2022-11-17T23:56:07.775Z,98402.75
2022-11-17T23:58:34.614Z,98404.71
